Pittsview, Alabama
Current Conditions -  °F | °C
As of 3:58 PM on Monday 20 Oct 2014 (Local Time) from KLSF Reporting Station
Few Clouds Few Clouds  
Wind Chill: 75°   Ceiling: Unl
Heat Index: 75°   Visibility: 10mi
Dew Point: 55°   Wind: 5mph
Humidity: 48%   Direction: NA
Pressure: 29.98"   Gusts: NA
Location:  32.19°N, 85.16°W
Report Text: KLSF 202058Z AUTO VRB04KT 10SM FEW050 24/13 A2998 RMK AO2 SLP154 T02400125 57018
Loading
Personal Weather Stations






























Interactive Weather Map
Tropical Storm Tracking
New forecast layout! Learn more

10-Day Weather Forecast

Advertisements
Track Severe Weather on mobile